createdAt,value
2023-01-08T00:00:34.514Z,81.04
2023-01-08T00:03:02.329Z,80.61
2023-01-08T00:05:30.109Z,82.08
2023-01-08T00:07:57.780Z,81.01
2023-01-08T00:10:26.860Z,80.81
2023-01-08T00:12:56.568Z,81.39
2023-01-08T00:15:24.644Z,81.97
2023-01-08T00:17:52.349Z,81.08
2023-01-08T00:20:20.039Z,81.11
2023-01-08T00:22:49.386Z,79.24
2023-01-08T00:25:17.349Z,79.57
2023-01-08T00:27:46.914Z,80.14
2023-01-08T00:30:15.011Z,80.61
2023-01-08T00:32:42.819Z,80.46
2023-01-08T00:35:10.767Z,81.53
2023-01-08T00:37:38.410Z,82.12
2023-01-08T00:40:07.560Z,81.56
2023-01-08T00:42:35.234Z,80.50
2023-01-08T00:45:04.687Z,80.94
2023-01-08T00:47:32.347Z,80.89
2023-01-08T00:50:00.084Z,79.99
2023-01-08T00:52:27.819Z,81.75
2023-01-08T00:54:55.527Z,80.74
2023-01-08T00:57:23.208Z,82.23
2023-01-08T00:59:50.903Z,80.44
2023-01-08T01:02:20.033Z,81.23
2023-01-08T01:04:47.761Z,82.41
2023-01-08T01:07:15.489Z,82.24
2023-01-08T01:09:43.176Z,82.98
2023-01-08T01:12:11.126Z,83.80
2023-01-08T01:14:39.045Z,84.92
2023-01-08T01:17:07.057Z,83.35
2023-01-08T01:19:36.861Z,83.10
2023-01-08T01:22:04.794Z,82.19
2023-01-08T01:24:32.618Z,82.03
2023-01-08T01:27:00.540Z,81.78
2023-01-08T01:29:28.336Z,81.00
2023-01-08T01:31:56.002Z,82.24
2023-01-08T01:34:23.737Z,82.73
2023-01-08T01:36:52.873Z,82.53
2023-01-08T01:39:21.777Z,83.03
2023-01-08T01:41:49.892Z,82.59
2023-01-08T01:44:39.767Z,82.76
2023-01-08T01:47:15.345Z,83.63
2023-01-08T01:49:48.784Z,81.27
2023-01-08T01:52:18.101Z,80.84
2023-01-08T01:54:45.974Z,82.69
2023-01-08T01:57:13.699Z,83.23
2023-01-08T01:59:42.518Z,84.13
2023-01-08T02:02:10.589Z,83.55
2023-01-08T02:04:38.488Z,81.63
2023-01-08T02:07:12.835Z,81.37
2023-01-08T02:09:49.206Z,83.30
2023-01-08T02:12:23.066Z,83.70
2023-01-08T02:15:01.954Z,83.57
2023-01-08T02:17:38.435Z,82.52
2023-01-08T02:20:12.532Z,81.86
2023-01-08T02:22:56.605Z,82.82
2023-01-08T02:25:35.408Z,83.48
2023-01-08T02:28:10.113Z,82.44
2023-01-08T02:30:38.359Z,84.12
2023-01-08T02:33:06.066Z,83.50
2023-01-08T02:35:39.519Z,83.51
2023-01-08T02:38:07.334Z,83.75
2023-01-08T02:40:40.360Z,84.48
2023-01-08T02:43:15.075Z,83.63
2023-01-08T02:45:48.069Z,82.20
2023-01-08T02:48:20.721Z,83.99
2023-01-08T02:50:54.489Z,84.76
2023-01-08T02:53:26.213Z,84.50
2023-01-08T02:55:56.876Z,83.05
2023-01-08T02:58:28.772Z,83.53
2023-01-08T03:00:57.492Z,83.08
2023-01-08T03:03:28.256Z,84.12
2023-01-08T03:05:59.029Z,84.33
2023-01-08T03:08:27.607Z,85.25
2023-01-08T03:11:01.752Z,84.56
2023-01-08T03:13:35.450Z,83.43
2023-01-08T03:16:09.475Z,84.39
2023-01-08T03:18:42.691Z,84.36
2023-01-08T03:21:11.178Z,84.88
2023-01-08T03:23:41.307Z,84.24
2023-01-08T03:26:10.374Z,82.89
2023-01-08T03:28:45.593Z,83.34
2023-01-08T03:31:16.469Z,82.73
2023-01-08T03:33:45.295Z,83.35
2023-01-08T03:36:16.566Z,84.26
2023-01-08T03:38:49.672Z,84.51
2023-01-08T03:41:22.005Z,82.59
2023-01-08T03:43:51.403Z,83.97
2023-01-08T03:46:22.909Z,83.16
2023-01-08T03:48:52.247Z,85.13
2023-01-08T03:51:19.970Z,83.57
2023-01-08T03:53:48.290Z,84.13
2023-01-08T03:56:17.079Z,84.16
2023-01-08T03:58:44.735Z,85.02
2023-01-08T04:01:13.949Z,83.50
2023-01-08T04:03:41.785Z,83.16
2023-01-08T04:06:09.567Z,83.74
2023-01-08T04:08:37.235Z,86.21
2023-01-08T04:11:04.951Z,83.93
2023-01-08T04:13:32.644Z,84.30
2023-01-08T04:16:00.506Z,82.44
2023-01-08T04:18:29.601Z,82.47
2023-01-08T04:20:57.313Z,83.06
2023-01-08T04:23:24.996Z,84.10
2023-01-08T04:25:52.916Z,83.77
2023-01-08T04:28:21.624Z,83.13
2023-01-08T04:30:49.416Z,84.66
2023-01-08T04:33:17.214Z,83.49
2023-01-08T04:35:46.280Z,83.60
2023-01-08T04:38:14.070Z,84.45
2023-01-08T04:40:41.873Z,85.04
2023-01-08T04:43:09.531Z,85.26
2023-01-08T04:45:37.293Z,84.03
2023-01-08T04:48:05.264Z,85.26
2023-01-08T04:50:33.090Z,83.86
2023-01-08T04:53:02.133Z,83.86
2023-01-08T04:55:29.848Z,85.70
2023-01-08T04:57:57.708Z,83.62
2023-01-08T05:00:25.625Z,83.28
2023-01-08T05:02:53.432Z,84.47
2023-01-08T05:05:21.247Z,85.27
2023-01-08T05:07:48.897Z,82.63
2023-01-08T05:10:18.067Z,83.71
2023-01-08T05:12:45.751Z,83.49
2023-01-08T05:15:13.481Z,83.11
2023-01-08T05:17:41.198Z,85.15
2023-01-08T05:20:10.113Z,83.42
2023-01-08T05:22:37.912Z,84.46
2023-01-08T05:25:06.339Z,84.62
2023-01-08T05:27:35.376Z,84.55
2023-01-08T05:30:03.045Z,84.86
2023-01-08T05:32:30.875Z,84.41
2023-01-08T05:34:58.550Z,84.10
2023-01-08T05:37:26.281Z,85.48
2023-01-08T05:39:54.155Z,85.85
2023-01-08T05:42:21.941Z,84.04
2023-01-08T05:44:51.022Z,83.51
2023-01-08T05:47:18.819Z,84.34
2023-01-08T05:49:46.736Z,83.83
2023-01-08T05:52:14.475Z,86.42
2023-01-08T05:54:42.195Z,83.51
2023-01-08T05:57:09.997Z,85.54
2023-01-08T05:59:37.716Z,85.18
2023-01-08T06:02:06.805Z,85.16
2023-01-08T06:04:34.604Z,84.74
2023-01-08T06:07:02.315Z,84.85
2023-01-08T06:09:30.074Z,83.48
2023-01-08T06:11:58.598Z,84.87
2023-01-08T06:14:26.298Z,84.51
2023-01-08T06:16:54.089Z,85.05
2023-01-08T06:19:23.227Z,83.85
2023-01-08T06:21:51.388Z,84.22
2023-01-08T06:24:19.101Z,84.92
2023-01-08T06:26:46.754Z,85.59
2023-01-08T06:29:14.467Z,84.47
2023-01-08T06:31:42.257Z,84.52
2023-01-08T06:34:10.043Z,86.50
2023-01-08T06:36:39.185Z,84.50
2023-01-08T06:39:07.254Z,87.10
2023-01-08T06:41:35.144Z,86.19
2023-01-08T06:44:02.877Z,86.40
2023-01-08T06:46:30.722Z,86.43
2023-01-08T06:48:58.517Z,86.48
2023-01-08T06:51:26.212Z,85.60
2023-01-08T06:53:55.264Z,86.76
2023-01-08T06:56:23.093Z,86.07
2023-01-08T06:58:50.905Z,85.40
2023-01-08T07:01:18.761Z,85.64
2023-01-08T07:03:47.810Z,85.63
2023-01-08T07:06:16.951Z,85.78
2023-01-08T07:08:45.088Z,86.23
2023-01-08T07:11:15.003Z,86.16
2023-01-08T07:13:42.851Z,85.98
2023-01-08T07:16:12.967Z,85.46
2023-01-08T07:18:42.243Z,86.70
2023-01-08T07:21:10.431Z,87.28
2023-01-08T07:23:38.407Z,85.92
2023-01-08T07:26:07.711Z,85.72
2023-01-08T07:28:36.975Z,85.58
2023-01-08T07:31:06.048Z,86.81
2023-01-08T07:33:34.133Z,85.57
2023-01-08T07:36:01.935Z,86.25
2023-01-08T07:38:29.834Z,86.59
2023-01-08T07:40:59.195Z,85.65
2023-01-08T07:43:29.916Z,86.72
2023-01-08T07:45:59.128Z,85.29
2023-01-08T07:48:26.804Z,86.15
2023-01-08T07:50:54.603Z,86.70
2023-01-08T07:53:22.353Z,90.07
2023-01-08T07:55:50.052Z,90.38
2023-01-08T07:58:17.728Z,91.28
2023-01-08T08:00:45.454Z,93.02
2023-01-08T08:03:14.692Z,93.50
2023-01-08T08:05:42.486Z,92.61
2023-01-08T08:08:10.929Z,93.80
2023-01-08T08:10:38.642Z,94.39
2023-01-08T08:13:07.106Z,94.39
2023-01-08T08:15:35.415Z,94.43
2023-01-08T08:18:03.217Z,92.46
2023-01-08T08:20:32.540Z,93.25
2023-01-08T08:23:03.881Z,93.94
2023-01-08T08:25:32.001Z,93.75
2023-01-08T08:28:01.014Z,94.11
2023-01-08T08:30:30.308Z,93.17
2023-01-08T08:33:00.420Z,93.74
2023-01-08T08:35:28.498Z,95.81
2023-01-08T08:37:58.035Z,95.12
2023-01-08T08:40:26.775Z,93.43
2023-01-08T08:42:57.727Z,92.13
2023-01-08T08:45:26.072Z,95.12
2023-01-08T08:47:54.006Z,92.39
2023-01-08T08:50:21.799Z,92.19
2023-01-08T08:52:49.826Z,92.81
2023-01-08T08:55:20.351Z,91.88
2023-01-08T08:57:49.315Z,92.46
2023-01-08T09:00:17.688Z,94.51
2023-01-08T09:02:45.789Z,95.45
2023-01-08T09:05:13.544Z,96.59
2023-01-08T09:07:41.277Z,96.23
2023-01-08T09:10:10.209Z,95.81
2023-01-08T09:12:39.234Z,94.52
2023-01-08T09:15:08.003Z,95.21
2023-01-08T09:17:36.889Z,95.25
2023-01-08T09:20:05.763Z,95.42
2023-01-08T09:22:33.873Z,92.30
2023-01-08T09:25:01.638Z,92.86
2023-01-08T09:27:29.397Z,93.75
2023-01-08T09:29:58.481Z,94.17
2023-01-08T09:32:26.166Z,94.61
2023-01-08T09:34:53.930Z,93.97
2023-01-08T09:37:23.266Z,92.43
2023-01-08T09:40:01.754Z,93.29
2023-01-08T09:42:31.666Z,92.82
2023-01-08T09:45:03.684Z,94.41
2023-01-08T09:47:35.938Z,92.76
2023-01-08T09:50:07.981Z,92.78
2023-01-08T09:52:35.749Z,94.72
2023-01-08T09:55:03.525Z,93.42
2023-01-08T09:57:31.481Z,90.94
2023-01-08T10:00:00.572Z,91.50
2023-01-08T10:02:29.876Z,93.09
2023-01-08T10:05:00.184Z,93.72
2023-01-08T10:07:30.525Z,94.65
2023-01-08T10:09:58.290Z,94.82
2023-01-08T10:12:28.989Z,91.20
2023-01-08T10:15:02.919Z,92.87
2023-01-08T10:17:37.824Z,93.48
2023-01-08T10:20:12.835Z,96.00
2023-01-08T10:22:40.554Z,95.67
2023-01-08T10:25:10.181Z,95.24
2023-01-08T10:27:47.875Z,93.93
2023-01-08T10:30:23.060Z,94.39
2023-01-08T10:32:54.789Z,94.79
2023-01-08T10:35:26.078Z,94.50
2023-01-08T10:37:53.873Z,94.13
2023-01-08T10:40:29.449Z,94.74
2023-01-08T10:42:59.538Z,93.18
2023-01-08T10:45:29.671Z,94.59
2023-01-08T10:48:00.271Z,95.17
2023-01-08T10:50:30.497Z,94.92
2023-01-08T10:53:00.171Z,95.35
2023-01-08T10:55:30.098Z,96.00
2023-01-08T10:57:59.540Z,95.42
2023-01-08T11:00:31.289Z,94.64
2023-01-08T11:03:02.316Z,94.74
2023-01-08T11:05:32.369Z,95.65
2023-01-08T11:08:02.234Z,95.81
2023-01-08T11:10:30.866Z,95.26
2023-01-08T11:13:01.232Z,96.95
2023-01-08T11:15:33.754Z,97.52
2023-01-08T11:18:20.363Z,97.36
2023-01-08T11:20:49.068Z,94.83
2023-01-08T11:23:19.828Z,94.90
2023-01-08T11:26:00.173Z,94.94
2023-01-08T11:28:39.478Z,94.46
2023-01-08T11:31:15.495Z,92.91
2023-01-08T11:33:45.414Z,93.14
2023-01-08T11:36:21.790Z,92.21
2023-01-08T11:38:49.486Z,93.44
2023-01-08T11:41:39.897Z,90.75
2023-01-08T11:44:19.459Z,91.11
2023-01-08T11:46:58.409Z,89.43
2023-01-08T11:50:08.704Z,88.86
2023-01-08T11:52:46.109Z,88.76
2023-01-08T11:55:31.545Z,86.97
2023-01-08T11:58:14.317Z,87.87
2023-01-08T12:00:55.383Z,84.73
2023-01-08T12:03:33.196Z,84.40
2023-01-08T12:06:12.131Z,83.90
2023-01-08T12:08:51.621Z,85.10
2023-01-08T12:11:26.575Z,85.25
2023-01-08T12:14:05.987Z,84.81
2023-01-08T12:16:46.922Z,86.18
2023-01-08T12:19:31.634Z,84.83
2023-01-08T12:22:13.607Z,86.61
2023-01-08T12:25:02.172Z,86.36
2023-01-08T12:27:56.557Z,88.10
2023-01-08T12:30:34.333Z,87.32
2023-01-08T12:33:06.630Z,85.17
2023-01-08T12:35:40.471Z,86.86
2023-01-08T12:38:14.049Z,86.10
2023-01-08T12:40:44.618Z,84.64
2023-01-08T12:43:16.840Z,85.87
2023-01-08T12:45:47.071Z,86.52
2023-01-08T12:48:18.471Z,86.12
2023-01-08T12:50:58.616Z,87.75
2023-01-08T12:53:36.381Z,88.49
2023-01-08T12:56:10.037Z,88.55
2023-01-08T12:58:51.897Z,87.04
2023-01-08T13:01:30.257Z,88.16
2023-01-08T13:04:00.194Z,86.83
2023-01-08T13:06:29.328Z,86.60
2023-01-08T13:09:00.502Z,85.79
2023-01-08T13:11:30.958Z,84.77
2023-01-08T13:14:07.222Z,84.92
2023-01-08T13:16:39.515Z,85.39
2023-01-08T13:19:08.952Z,84.65
2023-01-08T13:21:43.345Z,84.43
2023-01-08T13:24:29.936Z,83.51
2023-01-08T13:26:58.063Z,84.35
2023-01-08T13:29:39.389Z,82.38
2023-01-08T13:32:26.380Z,80.78
2023-01-08T13:35:23.149Z,80.53
2023-01-08T13:37:54.135Z,80.28
2023-01-08T13:40:38.957Z,79.35
2023-01-08T13:43:13.401Z,78.51
2023-01-08T13:45:41.654Z,78.58
2023-01-08T13:48:22.747Z,77.02
2023-01-08T13:50:51.552Z,76.52
2023-01-08T13:53:21.508Z,76.61
2023-01-08T13:55:57.140Z,76.94
2023-01-08T13:58:30.840Z,77.02
2023-01-08T14:01:00.744Z,76.86
2023-01-08T14:03:30.236Z,77.70
2023-01-08T14:06:07.221Z,76.25
2023-01-08T14:08:36.372Z,75.02
2023-01-08T14:11:06.109Z,74.87
2023-01-08T14:13:35.904Z,74.64
2023-01-08T14:16:06.672Z,74.93
2023-01-08T14:18:35.163Z,74.37
2023-01-08T14:21:03.952Z,74.33
2023-01-08T14:23:37.242Z,74.40
2023-01-08T14:26:08.629Z,74.97
2023-01-08T14:28:36.924Z,75.91
2023-01-08T14:31:04.671Z,74.09
2023-01-08T14:33:35.576Z,75.30
2023-01-08T14:36:07.543Z,76.36
2023-01-08T14:38:35.355Z,75.70
2023-01-08T14:41:05.998Z,76.14
2023-01-08T14:43:40.240Z,74.26
2023-01-08T14:46:16.563Z,74.07
2023-01-08T14:48:46.066Z,74.86
2023-01-08T14:51:16.735Z,74.96
2023-01-08T14:53:47.229Z,74.55
2023-01-08T14:56:17.278Z,75.63
2023-01-08T14:58:47.336Z,74.58
2023-01-08T15:01:18.070Z,75.87
2023-01-08T15:03:47.101Z,76.16
2023-01-08T15:06:25.456Z,76.63
2023-01-08T15:08:53.792Z,76.51
2023-01-08T15:11:24.301Z,76.91
2023-01-08T15:13:55.195Z,77.21
2023-01-08T15:16:30.516Z,77.04
2023-01-08T15:19:04.764Z,77.47
2023-01-08T15:21:33.014Z,77.85
2023-01-08T15:24:01.861Z,77.68
2023-01-08T15:26:30.045Z,77.31
2023-01-08T15:29:00.890Z,78.94
2023-01-08T15:31:30.905Z,78.55
2023-01-08T15:34:00.840Z,77.89
2023-01-08T15:36:28.876Z,77.97
2023-01-08T15:38:56.711Z,79.04
2023-01-08T15:41:42.171Z,78.44
2023-01-08T15:44:13.421Z,80.10
2023-01-08T15:46:41.161Z,80.93
2023-01-08T15:49:08.940Z,81.66
2023-01-08T15:51:40.224Z,82.60
2023-01-08T15:54:11.288Z,82.63
2023-01-08T15:56:39.178Z,82.93
2023-01-08T15:59:07.120Z,83.75
2023-01-08T16:01:36.441Z,83.44
2023-01-08T16:04:04.446Z,82.85
2023-01-08T16:06:32.915Z,82.29
2023-01-08T16:09:02.373Z,83.38
2023-01-08T16:11:30.060Z,83.96
2023-01-08T16:13:57.732Z,83.96
2023-01-08T16:16:25.454Z,84.17
2023-01-08T16:18:54.639Z,83.46
2023-01-08T16:21:22.348Z,84.61
2023-01-08T16:23:50.072Z,84.18
2023-01-08T16:26:17.897Z,84.50
2023-01-08T16:28:45.680Z,82.94
2023-01-08T16:31:13.567Z,83.24
2023-01-08T16:33:41.515Z,83.13
2023-01-08T16:36:11.914Z,83.07
2023-01-08T16:38:39.778Z,82.63
2023-01-08T16:41:07.644Z,82.59
2023-01-08T16:43:43.016Z,82.50
2023-01-08T16:46:13.687Z,82.84
2023-01-08T16:48:42.735Z,83.23
2023-01-08T16:51:12.350Z,83.23
2023-01-08T16:53:40.433Z,82.20
2023-01-08T16:56:08.958Z,82.22
2023-01-08T16:58:38.137Z,81.55
2023-01-08T17:01:09.926Z,82.92
2023-01-08T17:03:38.192Z,82.71
2023-01-08T17:06:07.130Z,82.14
2023-01-08T17:08:39.956Z,82.19
2023-01-08T17:11:09.801Z,82.32
2023-01-08T17:13:37.610Z,82.65
2023-01-08T17:16:06.037Z,81.53
2023-01-08T17:18:33.787Z,84.74
2023-01-08T17:21:01.633Z,84.87
2023-01-08T17:23:29.831Z,84.80
2023-01-08T17:26:00.844Z,85.75
2023-01-08T17:28:29.334Z,92.54
2023-01-08T17:31:03.241Z,90.92
2023-01-08T17:33:31.042Z,92.65
2023-01-08T17:35:59.202Z,91.67
2023-01-08T17:38:26.942Z,89.90
2023-01-08T17:40:54.739Z,88.36
2023-01-08T17:43:23.788Z,88.36
2023-01-08T17:45:51.547Z,86.61
2023-01-08T17:48:19.324Z,86.35
2023-01-08T17:50:47.122Z,85.99
2023-01-08T17:53:14.826Z,85.62
2023-01-08T17:55:42.613Z,85.11
2023-01-08T17:58:10.358Z,84.12
2023-01-08T18:00:39.664Z,86.38
2023-01-08T18:03:07.513Z,85.21
2023-01-08T18:05:35.483Z,85.67
2023-01-08T18:08:03.296Z,86.28
2023-01-08T18:10:31.035Z,84.99
2023-01-08T18:12:58.835Z,85.22
2023-01-08T18:15:26.545Z,86.22
2023-01-08T18:17:55.610Z,84.85
2023-01-08T18:20:23.461Z,85.52
2023-01-08T18:22:51.323Z,84.79
2023-01-08T18:25:19.144Z,85.43
2023-01-08T18:27:47.471Z,84.26
2023-01-08T18:30:15.342Z,84.82
2023-01-08T18:32:43.051Z,83.55
2023-01-08T18:35:15.104Z,84.46
2023-01-08T18:37:42.848Z,84.17
2023-01-08T18:40:12.117Z,84.99
2023-01-08T18:42:39.896Z,85.39
2023-01-08T18:45:10.964Z,86.12
2023-01-08T18:47:39.221Z,85.87
2023-01-08T18:50:08.498Z,88.13
2023-01-08T18:52:39.122Z,86.63
2023-01-08T18:55:07.624Z,86.23
2023-01-08T18:57:35.475Z,86.54
2023-01-08T19:00:04.614Z,86.22
2023-01-08T19:02:33.923Z,87.28
2023-01-08T19:05:01.969Z,86.68
2023-01-08T19:07:30.070Z,87.84
2023-01-08T19:10:01.173Z,87.57
2023-01-08T19:12:32.032Z,88.93
2023-01-08T19:14:59.924Z,87.81
2023-01-08T19:17:30.230Z,86.39
2023-01-08T19:19:58.069Z,86.34
2023-01-08T19:22:27.206Z,87.47
2023-01-08T19:24:55.066Z,87.49
2023-01-08T19:27:24.943Z,85.60
2023-01-08T19:29:52.904Z,88.37
2023-01-08T19:32:20.667Z,85.58
2023-01-08T19:34:48.924Z,86.89
2023-01-08T19:37:16.589Z,88.39
2023-01-08T19:39:44.306Z,88.03
2023-01-08T19:42:30.378Z,87.29
2023-01-08T19:44:59.449Z,88.28
2023-01-08T19:47:27.172Z,88.40
2023-01-08T19:49:54.924Z,87.79
2023-01-08T19:52:22.743Z,87.84
2023-01-08T19:54:50.555Z,88.43
2023-01-08T19:57:18.218Z,88.64
2023-01-08T19:59:45.924Z,88.23
2023-01-08T20:02:15.199Z,88.58
2023-01-08T20:04:43.781Z,88.41
2023-01-08T20:07:12.353Z,88.15
2023-01-08T20:09:40.427Z,87.75
2023-01-08T20:12:08.524Z,87.39
2023-01-08T20:14:36.317Z,89.82
2023-01-08T20:17:04.728Z,89.84
2023-01-08T20:19:34.798Z,88.08
2023-01-08T20:22:02.529Z,87.92
2023-01-08T20:24:30.627Z,88.97
2023-01-08T20:26:58.317Z,89.46
2023-01-08T20:29:26.283Z,88.26
2023-01-08T20:31:57.409Z,89.54
2023-01-08T20:34:25.655Z,88.94
2023-01-08T20:36:56.307Z,89.14
2023-01-08T20:39:24.233Z,90.20
2023-01-08T20:41:55.906Z,91.36
2023-01-08T20:44:31.884Z,92.78
2023-01-08T20:46:59.689Z,93.26
2023-01-08T20:49:27.665Z,92.77
2023-01-08T20:51:59.851Z,93.15
2023-01-08T20:54:29.393Z,93.50
2023-01-08T20:56:57.826Z,93.56
2023-01-08T20:59:25.619Z,93.37
2023-01-08T21:01:53.437Z,93.60
2023-01-08T21:04:21.574Z,94.72
2023-01-08T21:06:49.429Z,95.72
2023-01-08T21:09:18.548Z,94.99
2023-01-08T21:11:46.439Z,94.59
2023-01-08T21:14:14.576Z,93.93
2023-01-08T21:16:42.347Z,94.68
2023-01-08T21:19:10.858Z,94.42
2023-01-08T21:21:41.021Z,93.16
2023-01-08T21:24:10.760Z,93.42
2023-01-08T21:26:40.014Z,91.13
2023-01-08T21:29:09.231Z,91.11
2023-01-08T21:31:38.090Z,91.85
2023-01-08T21:34:08.510Z,90.97
2023-01-08T21:36:36.330Z,92.71
2023-01-08T21:39:04.698Z,91.71
2023-01-08T21:41:50.209Z,92.00
2023-01-08T21:44:38.854Z,92.01
2023-01-08T21:47:08.412Z,94.38
2023-01-08T21:49:36.841Z,93.03
2023-01-08T21:52:22.616Z,91.84
2023-01-08T21:54:50.489Z,92.21
2023-01-08T21:57:18.188Z,92.73
2023-01-08T21:59:50.123Z,92.54
2023-01-08T22:02:19.449Z,93.02
2023-01-08T22:04:47.746Z,93.83
2023-01-08T22:07:16.389Z,93.47
2023-01-08T22:09:44.122Z,95.37
2023-01-08T22:12:13.999Z,93.77
2023-01-08T22:14:41.717Z,93.38
2023-01-08T22:17:10.798Z,93.86
2023-01-08T22:19:39.500Z,93.36
2023-01-08T22:22:10.733Z,92.95
2023-01-08T22:24:39.030Z,93.95
2023-01-08T22:27:07.849Z,93.88
2023-01-08T22:29:36.014Z,93.37
2023-01-08T22:32:03.945Z,92.06
2023-01-08T22:34:33.727Z,95.20
2023-01-08T22:37:01.951Z,94.29
2023-01-08T22:39:29.707Z,94.59
2023-01-08T22:41:57.928Z,95.04
2023-01-08T22:44:25.735Z,94.64
2023-01-08T22:46:53.436Z,96.46
2023-01-08T22:49:23.988Z,96.14
2023-01-08T22:51:53.139Z,96.27
2023-01-08T22:54:21.043Z,96.75
2023-01-08T22:56:48.755Z,96.10
2023-01-08T22:59:16.400Z,95.75
2023-01-08T23:01:44.166Z,96.17
2023-01-08T23:04:11.968Z,95.08
2023-01-08T23:06:39.678Z,94.94
2023-01-08T23:09:09.036Z,96.40
2023-01-08T23:11:36.719Z,95.73
2023-01-08T23:14:04.642Z,95.66
2023-01-08T23:16:32.511Z,96.04
2023-01-08T23:19:01.506Z,95.38
2023-01-08T23:21:29.468Z,95.96
2023-01-08T23:23:57.700Z,96.51
2023-01-08T23:26:28.668Z,95.77
2023-01-08T23:28:58.909Z,96.81
2023-01-08T23:31:29.584Z,96.29
2023-01-08T23:33:58.345Z,95.34
2023-01-08T23:36:26.628Z,95.69
2023-01-08T23:38:56.264Z,96.65
2023-01-08T23:41:33.099Z,97.58
2023-01-08T23:44:03.851Z,96.97
2023-01-08T23:46:31.601Z,96.26
2023-01-08T23:48:59.310Z,95.01
2023-01-08T23:51:27.016Z,95.73
2023-01-08T23:53:54.723Z,94.26
2023-01-08T23:56:23.305Z,94.53
2023-01-08T23:58:53.174Z,94.72
